Time;durP1;ratioP1;P1;durP2;ratioP2;P2;SDS_P1;SDS_P2;PMS_P1;PMS_P2;Temp;Humidity;BMP_temperature;BMP_pressure;BME280_temperature;BME280_humidity;BME280_pressure;Samples;Min_cycle;Max_cycle;Signal;HPM_P1;HPM_P2
2021/06/08 00:01:53;;;;;;;168.25;159.70;;;17.80;99.90;;;;;;5110084;28;20197;-79
2021/06/08 00:04:19;;;;;;;160.60;152.38;;;17.70;99.90;;;;;;5111729;28;20238;-79
2021/06/08 00:06:46;;;;;;;183.95;174.40;;;17.50;99.90;;;;;;5110801;28;20193;-78
2021/06/08 00:09:12;;;;;;;160.93;152.40;;;17.50;99.90;;;;;;5116709;28;20205;-78
2021/06/08 00:11:39;;;;;;;168.65;160.30;;;17.40;99.90;;;;;;5111922;28;20211;-79
2021/06/08 00:14:05;;;;;;;188.18;178.63;;;17.30;99.90;;;;;;5119406;28;20203;-79
2021/06/08 00:19:29;;;;;;;165.02;156.30;;;17.20;99.90;;;;;;5111635;28;20208;-78
2021/06/08 00:22:03;;;;;;;187.70;177.98;;;17.10;99.90;;;;;;5117523;28;20204;-77
2021/06/08 00:29:52;;;;;;;173.52;164.63;;;17.30;99.90;;;;;;5112514;28;20201;-79
2021/06/08 00:32:18;;;;;;;200.00;189.57;;;17.20;99.90;;;;;;5111640;28;20203;-77
2021/06/08 00:34:46;;;;;;;173.52;164.60;;;17.20;99.90;;;;;;5112261;28;20220;-77
2021/06/08 00:37:13;;;;;;;166.27;157.88;;;17.20;99.90;;;;;;5112681;28;20229;-77
2021/06/08 00:39:39;;;;;;;182.57;173.02;;;17.10;99.90;;;;;;5111692;28;20271;-78
2021/06/08 00:42:06;;;;;;;167.73;159.35;;;17.00;99.90;;;;;;5113293;28;20229;-78
2021/06/08 00:44:33;;;;;;;164.05;155.75;;;17.00;99.90;;;;;;5115512;28;20272;-77
2021/06/08 00:46:59;;;;;;;172.93;164.25;;;17.00;99.90;;;;;;5112018;28;20202;-78
2021/06/08 00:49:26;;;;;;;186.88;177.23;;;17.00;99.90;;;;;;5111968;28;20209;-77
2021/06/08 00:51:54;;;;;;;190.13;179.73;;;16.80;99.90;;;;;;5110021;28;20709;-78
2021/06/08 00:54:21;;;;;;;207.38;196.63;;;16.90;99.90;;;;;;5111790;28;20203;-77
2021/06/08 00:56:47;;;;;;;187.80;177.68;;;16.90;99.90;;;;;;5111344;28;20206;-77
2021/06/08 00:59:14;;;;;;;214.95;202.95;;;16.90;99.90;;;;;;5110735;28;20203;-78
2021/06/08 01:01:41;;;;;;;183.77;174.15;;;16.90;99.90;;;;;;5116444;28;20210;-77
2021/06/08 01:04:09;;;;;;;176.65;167.60;;;16.90;99.90;;;;;;5119806;28;20818;-77
2021/06/08 01:06:38;;;;;;;204.65;193.10;;;16.90;99.90;;;;;;5121313;28;20196;-77
2021/06/08 01:09:07;;;;;;;196.15;185.77;;;16.90;99.90;;;;;;5111663;28;20243;-77
2021/06/08 01:11:35;;;;;;;197.52;187.35;;;16.80;99.90;;;;;;5119028;28;20589;-77
2021/06/08 01:14:01;;;;;;;217.95;206.32;;;16.70;99.90;;;;;;5111621;28;20227;-78
2021/06/08 01:16:29;;;;;;;187.20;177.68;;;16.60;99.90;;;;;;5114394;28;20202;-77
2021/06/08 01:18:56;;;;;;;193.85;183.55;;;16.60;99.90;;;;;;5115032;28;20218;-77
2021/06/08 01:21:27;;;;;;;183.98;173.73;;;16.50;99.90;;;;;;5115218;28;20259;-77
2021/06/08 01:23:54;;;;;;;176.80;167.68;;;16.50;99.90;;;;;;5113819;28;20209;-78
2021/06/08 01:26:23;;;;;;;192.07;181.77;;;16.50;99.90;;;;;;5109873;28;20229;-78
2021/06/08 01:28:51;;;;;;;177.18;167.68;;;16.40;99.90;;;;;;5110743;28;20201;-78
2021/06/08 01:31:21;;;;;;;174.98;165.82;;;16.30;99.90;;;;;;5119307;28;20202;-77
2021/06/08 01:33:48;;;;;;;175.82;166.75;;;16.20;99.90;;;;;;5116558;28;20260;-77
2021/06/08 01:36:16;;;;;;;206.38;195.40;;;16.20;99.90;;;;;;5109479;28;20573;-78
2021/06/08 01:38:45;;;;;;;180.40;170.68;;;16.20;99.90;;;;;;5117818;28;20232;-77
2021/06/08 01:41:13;;;;;;;189.23;178.50;;;16.20;99.90;;;;;;5111792;28;20202;-78
2021/06/08 01:43:48;;;;;;;176.15;166.65;;;16.20;99.90;;;;;;5109845;28;20220;-78
2021/06/08 01:51:49;;;;;;;186.68;176.68;;;16.40;99.90;;;;;;5115435;28;20331;-79
2021/06/08 01:54:24;;;;;;;215.85;204.20;;;16.30;99.90;;;;;;5117041;28;20213;-78
2021/06/08 01:57:00;;;;;;;195.27;184.45;;;16.30;99.90;;;;;;5109058;28;20210;-78
2021/06/08 02:02:19;;;;;;;203.30;192.38;;;16.20;99.90;;;;;;5110415;28;20208;-77
2021/06/08 02:07:41;;;;;;;218.77;206.48;;;16.30;99.90;;;;;;5109883;28;20252;-78
2021/06/08 02:10:26;;;;;;;211.30;200.13;;;16.30;99.90;;;;;;5118223;28;20272;-78
2021/06/08 02:12:58;;;;;;;220.43;208.18;;;16.30;99.90;;;;;;5108820;28;20209;-77
2021/06/08 02:15:33;;;;;;;222.57;210.40;;;16.20;99.90;;;;;;5110025;28;20207;-77
2021/06/08 02:18:01;;;;;;;198.75;188.32;;;16.20;99.90;;;;;;5114250;28;20213;-78
2021/06/08 02:20:32;;;;;;;188.15;178.43;;;16.20;99.90;;;;;;5116951;28;20201;-79
2021/06/08 02:23:00;;;;;;;192.50;182.15;;;16.20;99.90;;;;;;5109667;28;20853;-78
2021/06/08 02:25:31;;;;;;;199.85;189.13;;;16.20;99.90;;;;;;5108756;28;20234;-78
2021/06/08 02:28:00;;;;;;;209.75;198.38;;;16.20;99.90;;;;;;5109163;28;20669;-78
2021/06/08 02:30:28;;;;;;;223.02;208.90;;;16.20;99.90;;;;;;5108456;28;20201;-78
2021/06/08 02:32:55;;;;;;;199.13;188.38;;;16.10;99.90;;;;;;5108925;28;20230;-78
2021/06/08 02:35:24;;;;;;;221.30;209.25;;;16.10;99.90;;;;;;5113506;28;20198;-78
2021/06/08 02:37:51;;;;;;;204.38;193.20;;;16.10;99.90;;;;;;5109537;28;20224;-78
2021/06/08 02:40:18;;;;;;;227.10;214.85;;;16.10;99.90;;;;;;5109013;28;20216;-79
2021/06/08 02:42:47;;;;;;;194.80;184.40;;;16.00;99.90;;;;;;5109291;28;20210;-78
2021/06/08 02:45:14;;;;;;;190.93;180.40;;;15.90;99.90;;;;;;5109134;28;20225;-77
2021/06/08 02:47:43;;;;;;;211.77;200.40;;;15.80;99.90;;;;;;5113824;28;20582;-78
2021/06/08 02:50:12;;;;;;;195.57;185.43;;;15.80;99.90;;;;;;5114521;28;20205;-78
2021/06/08 02:52:39;;;;;;;194.55;184.20;;;15.70;99.90;;;;;;5116949;28;20215;-77
2021/06/08 02:55:08;;;;;;;199.32;188.20;;;15.70;99.90;;;;;;5116925;28;20202;-77
2021/06/08 02:57:36;;;;;;;216.07;204.52;;;15.60;99.90;;;;;;5113584;28;20205;-77
2021/06/08 03:00:07;;;;;;;200.52;189.82;;;15.60;99.90;;;;;;5112787;28;20207;-77
2021/06/08 03:02:37;;;;;;;224.30;212.15;;;15.50;99.90;;;;;;5111880;28;20205;-77
2021/06/08 03:05:07;;;;;;;226.90;214.65;;;15.50;99.90;;;;;;5113590;28;20229;-78
2021/06/08 03:07:38;;;;;;;197.27;186.15;;;15.50;99.90;;;;;;5116329;28;20208;-77
2021/06/08 03:10:08;;;;;;;190.68;180.07;;;15.60;99.90;;;;;;5114135;28;20232;-78
2021/06/08 03:12:43;;;;;;;214.35;202.65;;;15.70;99.90;;;;;;5117055;28;20258;-77
2021/06/08 03:15:12;;;;;;;192.63;181.85;;;15.70;99.90;;;;;;5114703;28;20201;-77
2021/06/08 03:17:41;;;;;;;89.68;85.10;;;15.70;99.90;;;;;;5116477;28;20445;-78
2021/06/08 03:20:13;;;;;;;190.85;180.05;;;15.70;99.90;;;;;;5113734;28;20201;-77
2021/06/08 03:22:44;;;;;;;187.80;177.95;;;15.70;99.90;;;;;;5112768;28;20213;-77
2021/06/08 03:25:13;;;;;;;211.88;199.80;;;15.50;99.90;;;;;;5118882;28;20222;-77
2021/06/08 03:27:41;;;;;;;227.35;215.00;;;15.50;99.90;;;;;;5113059;28;20207;-77
2021/06/08 03:30:14;;;;;;;223.40;211.13;;;15.60;99.90;;;;;;5124434;28;20547;-77
2021/06/08 03:32:41;;;;;;;218.40;206.38;;;15.50;99.90;;;;;;5117497;28;20231;-78
2021/06/08 03:35:10;;;;;;;213.68;201.80;;;15.50;99.90;;;;;;5112415;28;20215;-77
2021/06/08 03:37:38;;;;;;;224.57;212.25;;;15.50;99.90;;;;;;5112790;28;20292;-77
2021/06/08 03:40:06;;;;;;;203.75;191.80;;;15.40;99.90;;;;;;5117129;28;20207;-78
2021/06/08 03:42:33;;;;;;;214.25;201.73;;;15.50;99.90;;;;;;5112638;28;20203;-78
2021/06/08 03:45:00;;;;;;;231.52;218.55;;;15.60;99.90;;;;;;5116041;28;20217;-77
2021/06/08 03:47:28;;;;;;;229.13;215.80;;;15.60;99.90;;;;;;5116964;28;20198;-77
2021/06/08 03:55:28;;;;;;;206.25;195.05;;;15.20;99.90;;;;;;5111521;28;20202;-78
2021/06/08 03:57:56;;;;;;;213.70;201.52;;;15.20;99.90;;;;;;5122750;28;20217;-77
2021/06/08 04:00:24;;;;;;;227.85;215.00;;;15.30;99.90;;;;;;5117489;28;20271;-79
2021/06/08 04:05:42;;;;;;;213.10;201.05;;;15.20;99.90;;;;;;5119322;28;20230;-78
2021/06/08 04:13:32;;;;;;;238.00;224.35;;;15.30;99.90;;;;;;5116463;28;20197;-79
2021/06/08 04:15:59;;;;;;;234.45;220.80;;;15.30;99.90;;;;;;5116099;28;20206;-77
2021/06/08 04:18:30;;;;;;;242.48;228.82;;;15.40;99.90;;;;;;5113098;28;20204;-78
2021/06/08 04:21:01;;;;;;;239.50;225.82;;;15.50;99.90;;;;;;5110778;28;20209;-77
2021/06/08 04:23:28;;;;;;;238.30;224.70;;;15.60;99.90;;;;;;5114484;28;20199;-76
2021/06/08 04:25:55;;;;;;;225.15;212.73;;;15.60;99.90;;;;;;5114095;28;20238;-78
2021/06/08 04:28:23;;;;;;;228.93;215.98;;;15.60;99.90;;;;;;5110816;28;20268;-77
2021/06/08 04:30:50;;;;;;;218.05;205.85;;;15.60;99.90;;;;;;5110422;28;20206;-77
2021/06/08 04:33:20;;;;;;;223.10;210.77;;;15.50;99.90;;;;;;5110494;28;20804;-78
2021/06/08 04:35:48;;;;;;;220.32;207.57;;;15.50;99.90;;;;;;5112230;28;20202;-79
2021/06/08 04:38:16;;;;;;;206.90;194.98;;;15.50;99.90;;;;;;5110934;28;20674;-78
2021/06/08 04:40:44;;;;;;;212.38;199.95;;;15.60;99.90;;;;;;5110122;28;20214;-77
2021/06/08 04:43:10;;;;;;;220.60;208.07;;;15.60;99.90;;;;;;5117100;28;20225;-78
2021/06/08 04:45:37;;;;;;;213.02;201.15;;;15.80;99.90;;;;;;5114727;28;20226;-77
2021/06/08 04:48:05;;;;;;;216.30;204.55;;;16.00;99.90;;;;;;5117621;28;20210;-79
2021/06/08 04:50:37;;;;;;;223.15;210.85;;;16.10;99.90;;;;;;5109928;28;20203;-77
2021/06/08 04:53:05;;;;;;;192.40;182.02;;;16.10;99.90;;;;;;5110598;28;20265;-78
2021/06/08 04:55:32;;;;;;;221.20;209.43;;;16.30;99.90;;;;;;5109599;28;20202;-77
2021/06/08 04:57:59;;;;;;;200.23;188.95;;;16.40;99.90;;;;;;5116237;28;20206;-78
2021/06/08 05:00:32;;;;;;;221.50;209.10;;;16.40;99.90;;;;;;5111809;28;20198;-78
2021/06/08 05:03:04;;;;;;;231.30;218.27;;;16.40;99.90;;;;;;5116306;28;20232;-77
2021/06/08 05:05:32;;;;;;;195.10;184.57;;;16.40;99.90;;;;;;5107976;28;20225;-77
2021/06/08 05:08:07;;;;;;;212.15;200.48;;;16.40;99.90;;;;;;5115356;28;20202;-78
2021/06/08 05:10:37;;;;;;;222.70;210.65;;;16.30;99.90;;;;;;5109426;28;20202;-78
2021/06/08 05:13:09;;;;;;;189.82;179.70;;;16.40;99.90;;;;;;5109391;28;20237;-77
2021/06/08 05:15:37;;;;;;;224.27;211.93;;;16.40;99.90;;;;;;5116581;28;20207;-79
2021/06/08 05:18:06;;;;;;;216.38;204.57;;;16.50;99.90;;;;;;5109026;28;20568;-79
2021/06/08 05:20:39;;;;;;;219.45;207.60;;;16.50;99.90;;;;;;5110467;28;20229;-79
2021/06/08 05:23:08;;;;;;;203.98;192.43;;;16.60;99.90;;;;;;5115875;28;20201;-79
2021/06/08 05:25:37;;;;;;;212.88;201.60;;;16.70;99.90;;;;;;5108185;28;20241;-79
2021/06/08 05:28:05;;;;;;;204.38;193.18;;;16.80;99.90;;;;;;5107519;28;20214;-77
2021/06/08 05:30:32;;;;;;;210.55;198.90;;;17.00;99.90;;;;;;5107881;28;20205;-78
2021/06/08 05:32:59;;;;;;;233.68;220.80;;;17.10;99.90;;;;;;5106484;28;20210;-79
2021/06/08 05:35:27;;;;;;;214.18;202.52;;;17.20;99.90;;;;;;5107449;28;20194;-79
2021/06/08 05:37:54;;;;;;;192.82;182.00;;;17.40;99.90;;;;;;5113934;28;20213;-79
2021/06/08 05:40:27;;;;;;;200.77;189.57;;;17.60;99.90;;;;;;5107181;28;20214;-79
2021/06/08 05:42:53;;;;;;;193.98;183.23;;;17.70;99.90;;;;;;5109604;28;20210;-80
2021/06/08 05:45:20;;;;;;;189.10;178.02;;;17.90;99.90;;;;;;5115985;28;20221;-80
2021/06/08 05:47:46;;;;;;;85.15;79.97;;;18.10;99.90;;;;;;5115130;28;20499;-79
2021/06/08 05:50:13;;;;;;;175.45;165.77;;;18.20;99.90;;;;;;5107607;28;20232;-79
2021/06/08 05:52:53;;;;;;;181.82;172.07;;;18.30;99.90;;;;;;5108288;28;20213;-79
2021/06/08 05:55:25;;;;;;;171.95;163.02;;;18.50;99.90;;;;;;5118468;28;20288;-79
2021/06/08 05:57:52;;;;;;;200.50;189.30;;;18.70;99.90;;;;;;5111980;28;20298;-79
2021/06/08 06:00:20;;;;;;;177.50;166.57;;;18.80;99.90;;;;;;5112347;28;20206;-79
2021/06/08 06:02:47;;;;;;;186.52;176.27;;;18.90;99.90;;;;;;5107591;28;20262;-78
2021/06/08 06:05:14;;;;;;;168.05;159.05;;;18.90;99.90;;;;;;5107907;28;20267;-78
2021/06/08 06:07:43;;;;;;;190.07;179.60;;;18.90;99.90;;;;;;5108349;28;20202;-79
2021/06/08 06:10:11;;;;;;;155.18;146.85;;;19.00;99.90;;;;;;5107931;28;20221;-77
2021/06/08 06:12:40;;;;;;;142.32;134.68;;;19.00;99.90;;;;;;5111270;28;20210;-79
2021/06/08 06:15:08;;;;;;;80.20;74.90;;;19.10;99.90;;;;;;5119025;28;20454;-79
2021/06/08 06:17:36;;;;;;;151.93;142.77;;;19.20;99.90;;;;;;5120633;28;20198;-80
2021/06/08 06:20:06;;;;;;;143.30;133.30;;;19.40;99.90;;;;;;5126628;28;20216;-79
2021/06/08 06:22:35;;;;;;;131.65;123.93;;;19.60;99.90;;;;;;5122090;28;20545;-78
2021/06/08 06:25:02;;;;;;;128.85;120.85;;;19.70;99.90;;;;;;5127317;28;20267;-79
2021/06/08 06:27:30;;;;;;;140.55;132.30;;;19.80;99.90;;;;;;5118033;28;20210;-79
2021/06/08 06:29:59;;;;;;;150.80;142.15;;;19.90;99.90;;;;;;5112850;28;20200;-79
2021/06/08 06:32:25;;;;;;;138.10;128.77;;;20.10;99.90;;;;;;5112369;28;20218;-79
2021/06/08 06:37:37;;;;;;;131.18;123.35;;;20.10;99.90;;;;;;5113697;28;20202;-79
2021/06/08 06:40:09;;;;;;;153.57;144.93;;;20.20;99.90;;;;;;5113584;28;20207;-79
2021/06/08 06:42:41;;;;;;;118.35;111.30;;;20.30;99.90;;;;;;5112893;28;20204;-78
2021/06/08 06:45:14;;;;;;;124.10;116.97;;;20.30;99.90;;;;;;5111722;28;20229;-79
2021/06/08 06:47:49;;;;;;;125.93;118.88;;;20.30;99.90;;;;;;5112859;28;20283;-78
2021/06/08 06:52:58;;;;;;;120.18;111.70;;;20.40;99.90;;;;;;5113869;28;20236;-79
2021/06/08 06:55:26;;;;;;;125.40;117.97;;;20.60;99.90;;;;;;5113078;28;20232;-78
2021/06/08 06:57:53;;;;;;;138.82;130.80;;;20.80;99.90;;;;;;5113032;28;20219;-78
2021/06/08 07:00:22;;;;;;;146.23;136.85;;;20.80;99.90;;;;;;5112125;28;20204;-79
2021/06/08 07:02:50;;;;;;;111.57;104.70;;;20.80;99.90;;;;;;5112216;28;20235;-79
2021/06/08 07:10:45;;;;;;;131.35;123.65;;;21.10;99.90;;;;;;5110754;28;20896;-79
2021/06/08 07:13:12;;;;;;;118.43;111.68;;;21.50;99.90;;;;;;5115730;28;20549;-79
2021/06/08 07:15:43;;;;;;;114.30;107.47;;;21.80;99.90;;;;;;5112959;28;20205;-79
2021/06/08 07:23:33;;;;;;;85.00;79.55;;;22.00;99.90;;;;;;5111917;28;20201;-79
2021/06/08 07:26:00;;;;;;;73.85;68.80;;;22.20;99.90;;;;;;5122820;28;20227;-79
2021/06/08 07:28:27;;;;;;;97.30;91.32;;;22.40;99.90;;;;;;5111331;28;20199;-78
2021/06/08 07:33:43;;;;;;;69.10;64.38;;;22.60;99.90;;;;;;5110352;28;20230;-79
2021/06/08 07:36:26;;;;;;;58.28;54.13;;;22.80;99.90;;;;;;5119231;28;20244;-79
2021/06/08 07:41:43;;;;;;;63.92;59.35;;;23.40;99.90;;;;;;5110011;28;20288;-78
2021/06/08 07:47:02;;;;;;;48.67;44.55;;;23.70;99.90;;;;;;5116701;28;20293;-77
2021/06/08 07:52:15;;;;;;;24.13;20.45;;;23.50;99.90;;;;;;5109857;28;20449;-79
2021/06/08 07:54:42;;;;;;;42.35;38.38;;;23.30;99.90;;;;;;5117824;28;20231;-79
2021/06/08 07:57:09;;;;;;;47.72;43.20;;;23.20;99.90;;;;;;5115991;28;20210;-78
2021/06/08 08:07:47;;;;;;;29.60;22.00;;;22.80;99.90;;;;;;5111311;28;20460;-79
2021/06/08 08:15:38;;;;;;;52.17;47.92;;;22.80;99.90;;;;;;5111726;28;20211;-79
2021/06/08 08:18:06;;;;;;;57.35;53.30;;;22.70;99.90;;;;;;5117535;28;20456;-78
2021/06/08 08:20:43;;;;;;;52.60;48.63;;;22.60;99.90;;;;;;5111306;28;20202;-79
2021/06/08 08:23:11;;;;;;;24.50;20.98;;;22.60;99.90;;;;;;5121941;28;20480;-79
2021/06/08 08:25:37;;;;;;;55.50;51.35;;;22.50;99.90;;;;;;5120812;28;20224;-78
2021/06/08 08:28:04;;;;;;;68.30;63.47;;;22.30;99.90;;;;;;5116881;28;20205;-82
2021/06/08 08:33:28;;;;;;;76.25;71.20;;;22.20;99.90;;;;;;5110986;28;20205;-82
2021/06/08 08:38:39;;;;;;;71.00;66.38;;;22.40;99.90;;;;;;5109666;28;20234;-82
2021/06/08 08:41:06;;;;;;;64.68;60.15;;;22.60;99.90;;;;;;5113838;28;20202;-82
2021/06/08 08:43:33;;;;;;;60.35;55.90;;;22.90;99.90;;;;;;5110300;28;20209;-83
2021/06/08 08:48:47;;;;;;;58.80;54.53;;;23.20;99.90;;;;;;5110165;28;20200;-83
2021/06/08 08:59:22;;;;;;;79.88;74.05;;;22.60;99.90;;;;;;5119302;28;20231;-77
2021/06/08 09:01:50;;;;;;;79.38;73.68;;;22.60;99.90;;;;;;5110560;28;20195;-80
2021/06/08 09:04:19;;;;;;;68.90;64.43;;;22.60;99.90;;;;;;5112860;28;20242;-76
2021/06/08 09:12:16;;;;;;;66.63;62.30;;;22.40;99.90;;;;;;5109280;28;20219;-76
2021/06/08 09:14:43;;;;;;;63.83;59.65;;;22.50;99.90;;;;;;5108245;28;20240;-76
2021/06/08 09:17:10;;;;;;;78.65;73.80;;;22.60;99.90;;;;;;5111653;28;20227;-76
2021/06/08 09:19:38;;;;;;;91.93;85.95;;;22.50;99.90;;;;;;5111722;28;20210;-76
2021/06/08 09:22:05;;;;;;;68.53;63.17;;;22.60;99.90;;;;;;5107612;28;20207;-76
2021/06/08 09:24:31;;;;;;;54.15;50.47;;;23.00;99.90;;;;;;5107204;28;20195;-76
2021/06/08 09:27:01;;;;;;;47.75;44.38;;;23.50;99.90;;;;;;5107244;28;20226;-76
2021/06/08 09:29:30;;;;;;;54.30;50.83;;;24.10;99.90;;;;;;5119807;28;20552;-76
2021/06/08 09:32:30;;;;;;;42.50;39.85;;;24.40;99.90;;;;;;5107107;28;20202;-76
2021/06/08 09:34:59;;;;;;;38.95;36.40;;;24.90;99.90;;;;;;5040487;28;20216;-76
2021/06/08 09:37:35;;;;;;;43.22;40.53;;;25.00;99.90;;;;;;5036781;28;20239;-77
2021/06/08 09:40:03;;;;;;;40.05;37.22;;;24.70;99.90;;;;;;5020088;28;20240;-77
2021/06/08 09:42:30;;;;;;;44.95;41.45;;;24.50;99.90;;;;;;5030119;28;20204;-76
2021/06/08 09:45:11;;;;;;;42.97;39.88;;;24.10;99.90;;;;;;5034208;28;20211;-77
2021/06/08 09:47:38;;;;;;;49.35;46.13;;;24.00;99.90;;;;;;5035472;28;20728;-76
2021/06/08 09:50:34;;;;;;;43.53;40.15;;;24.10;99.90;;;;;;5035566;28;20214;-77
2021/06/08 09:53:22;;;;;;;49.85;46.53;;;24.10;99.90;;;;;;5035282;28;20203;-76
2021/06/08 09:55:53;;;;;;;50.42;46.42;;;24.00;99.90;;;;;;5030532;28;20233;-77
2021/06/08 09:58:20;;;;;;;45.83;42.30;;;23.90;99.90;;;;;;5032909;28;20205;-76
2021/06/08 10:01:05;;;;;;;47.72;44.17;;;24.00;99.90;;;;;;5034318;28;20208;-77
2021/06/08 10:08:13;;;;;;;95.43;89.55;;;24.30;99.90;;;;;;5152227;27;20215;-77
2021/06/08 10:10:41;;;;;;;89.78;84.20;;;24.30;99.90;;;;;;5154772;27;20251;-78
2021/06/08 10:13:10;;;;;;;95.15;89.38;;;24.20;99.90;;;;;;5153031;27;20205;-78
2021/06/08 10:15:49;;;;;;;104.25;97.78;;;24.10;99.90;;;;;;5157851;27;20205;-77
2021/06/08 10:18:16;;;;;;;88.70;83.18;;;23.90;99.90;;;;;;5153917;27;20198;-77
2021/06/08 10:20:48;;;;;;;83.22;78.18;;;23.90;99.90;;;;;;5153549;27;20206;-78
2021/06/08 10:23:22;;;;;;;79.95;74.72;;;23.90;99.90;;;;;;5153258;27;20222;-77
2021/06/08 10:25:49;;;;;;;81.88;76.90;;;23.80;99.90;;;;;;5155776;27;20206;-77
2021/06/08 10:28:17;;;;;;;93.70;87.72;;;23.70;99.90;;;;;;5155952;27;20201;-78
2021/06/08 10:30:45;;;;;;;85.40;80.22;;;23.70;99.90;;;;;;5153026;27;20209;-78
2021/06/08 10:33:13;;;;;;;93.40;87.85;;;23.50;99.90;;;;;;5157188;27;20209;-77
2021/06/08 10:35:40;;;;;;;90.13;84.60;;;23.40;99.90;;;;;;5150052;27;20196;-78
2021/06/08 10:38:07;;;;;;;94.78;88.85;;;23.40;99.90;;;;;;5154502;27;20214;-78
2021/06/08 10:40:37;;;;;;;94.38;88.72;;;23.50;99.90;;;;;;5152865;27;20444;-78
2021/06/08 10:43:04;;;;;;;84.32;78.78;;;23.50;99.90;;;;;;5155541;27;20233;-77
2021/06/08 10:45:50;;;;;;;92.63;86.72;;;23.60;99.90;;;;;;5155254;27;20203;-77
2021/06/08 10:48:21;;;;;;;112.53;105.97;;;23.70;99.90;;;;;;5156017;27;20749;-78
2021/06/08 10:50:49;;;;;;;108.18;101.72;;;23.60;99.90;;;;;;5154349;27;20272;-78
2021/06/08 10:53:35;;;;;;;94.60;88.55;;;23.80;99.90;;;;;;5151960;27;21119;-78
2021/06/08 10:56:21;;;;;;;84.43;78.80;;;24.30;99.90;;;;;;5154800;27;20195;-78
2021/06/08 10:58:51;;;;;;;64.95;60.50;;;24.70;99.90;;;;;;5151496;27;20210;-78
2021/06/08 11:01:50;;;;;;;62.25;57.97;;;25.00;99.90;;;;;;5154363;27;20240;-78
2021/06/08 11:04:24;;;;;;;66.72;62.45;;;25.30;99.90;;;;;;5074887;28;20615;-78
2021/06/08 11:06:56;;;;;;;69.22;65.03;;;25.70;99.90;;;;;;5074335;28;20204;-77
2021/06/08 11:09:32;;;;;;;77.22;72.32;;;25.80;99.90;;;;;;5069618;28;20196;-77
2021/06/08 11:12:02;;;;;;;93.35;87.97;;;25.80;99.90;;;;;;5073040;28;20208;-77
2021/06/08 11:14:58;;;;;;;92.20;86.03;;;25.80;99.90;;;;;;5066467;28;20206;-77
2021/06/08 11:17:34;;;;;;;60.22;56.63;;;25.70;99.90;;;;;;5059939;28;20205;-77
2021/06/08 11:20:04;;;;;;;93.28;88.13;;;25.50;99.90;;;;;;5060507;28;20193;-77
2021/06/08 11:22:55;;;;;;;76.32;71.53;;;25.30;99.90;;;;;;5057878;28;20201;-77
2021/06/08 11:25:43;;;;;;;76.18;71.93;;;25.30;99.90;;;;;;5060302;28;20199;-77
2021/06/08 11:28:15;;;;;;;80.60;76.03;;;25.20;99.90;;;;;;5059174;28;20197;-78
2021/06/08 11:30:43;;;;;;;80.78;76.22;;;25.00;99.90;;;;;;5059827;28;20204;-78
2021/06/08 11:33:27;;;;;;;83.15;77.88;;;25.00;99.90;;;;;;5059715;28;20198;-77
2021/06/08 11:35:54;;;;;;;68.43;64.28;;;24.80;99.90;;;;;;5121802;27;20209;-77
2021/06/08 11:38:30;;;;;;;66.32;62.20;;;24.80;99.90;;;;;;5137605;27;20211;-77
2021/06/08 11:41:08;;;;;;;76.57;71.82;;;24.80;99.90;;;;;;5138563;27;20243;-77
2021/06/08 11:43:57;;;;;;;62.33;58.67;;;24.90;99.90;;;;;;5136946;27;20276;-77
2021/06/08 11:47:01;;;;;;;70.43;66.40;;;24.80;99.90;;;;;;5140450;27;20206;-77
2021/06/08 11:49:28;;;;;;;75.43;71.28;;;24.90;99.90;;;;;;5059264;28;20200;-77
2021/06/08 11:52:13;;;;;;;60.50;56.97;;;24.90;99.90;;;;;;5060689;28;20209;-77
2021/06/08 11:54:48;;;;;;;89.15;84.07;;;24.80;99.90;;;;;;5057684;28;20217;-77
2021/06/08 11:57:32;;;;;;;95.45;89.82;;;24.80;99.90;;;;;;5059660;28;20201;-77
2021/06/08 12:00:00;;;;;;;67.70;63.72;;;25.00;99.90;;;;;;5058385;28;20200;-77
2021/06/08 12:02:32;;;;;;;73.13;69.18;;;25.00;99.90;;;;;;5060322;28;20209;-77
2021/06/08 12:05:07;;;;;;;81.00;76.65;;;25.00;99.90;;;;;;5058755;28;20236;-77
2021/06/08 12:07:41;;;;;;;74.72;70.28;;;25.10;99.90;;;;;;5058182;28;20343;-77
2021/06/08 12:10:09;;;;;;;74.63;70.38;;;25.20;99.90;;;;;;5057881;28;20210;-76
2021/06/08 12:12:43;;;;;;;59.05;55.60;;;25.10;99.90;;;;;;5057729;28;20205;-76
2021/06/08 12:15:19;;;;;;;74.68;70.63;;;24.90;99.90;;;;;;5060832;28;20221;-77
2021/06/08 12:17:55;;;;;;;73.80;69.88;;;25.10;99.90;;;;;;5060023;28;20243;-77
2021/06/08 12:20:23;;;;;;;74.13;70.00;;;25.20;99.90;;;;;;5059521;28;20202;-77
2021/06/08 12:22:49;;;;;;;64.05;60.17;;;25.00;99.90;;;;;;5059345;28;20207;-76
2021/06/08 12:25:16;;;;;;;71.80;67.95;;;25.00;99.90;;;;;;5098209;27;20194;-76
2021/06/08 12:27:45;;;;;;;70.78;66.85;;;24.90;99.90;;;;;;5134191;27;20207;-76
2021/06/08 12:30:15;;;;;;;53.65;50.70;;;25.00;99.90;;;;;;5135790;27;20205;-76
2021/06/08 12:32:42;;;;;;;49.10;46.20;;;24.90;99.90;;;;;;5133582;27;20217;-76
2021/06/08 12:35:22;;;;;;;51.38;48.40;;;24.80;99.90;;;;;;5136967;27;20203;-76
2021/06/08 12:37:50;;;;;;;63.58;60.10;;;24.70;99.90;;;;;;5136736;27;20209;-76
2021/06/08 12:40:19;;;;;;;74.10;70.13;;;24.70;99.90;;;;;;5133432;27;20202;-76
2021/06/08 12:42:46;;;;;;;69.35;65.70;;;24.80;99.90;;;;;;5134847;27;20210;-76
2021/06/08 12:45:21;;;;;;;62.40;58.97;;;24.80;99.90;;;;;;5135104;27;20203;-77
2021/06/08 12:47:47;;;;;;;58.35;55.05;;;24.80;99.90;;;;;;5138661;27;20205;-77
2021/06/08 12:50:20;;;;;;;48.08;45.40;;;25.00;99.90;;;;;;5137342;27;20206;-77
2021/06/08 12:52:57;;;;;;;75.00;71.10;;;25.00;99.90;;;;;;5137672;27;20199;-77
2021/06/08 12:55:28;;;;;;;54.13;51.25;;;25.10;99.90;;;;;;5139610;27;20297;-76
2021/06/08 12:57:58;;;;;;;57.20;54.00;;;25.10;99.90;;;;;;5139506;27;20211;-77
2021/06/08 13:00:29;;;;;;;70.60;66.75;;;25.00;99.90;;;;;;5139148;27;20318;-78
2021/06/08 13:02:56;;;;;;;66.38;62.72;;;25.00;99.90;;;;;;5135240;27;20227;-76
2021/06/08 13:05:29;;;;;;;83.25;78.32;;;25.00;99.90;;;;;;5136396;27;20226;-77
2021/06/08 13:07:57;;;;;;;63.95;60.50;;;25.00;99.90;;;;;;5138143;27;20204;-77
2021/06/08 13:10:26;;;;;;;65.72;61.88;;;25.10;99.90;;;;;;5135814;27;20351;-76
2021/06/08 13:12:54;;;;;;;64.05;60.42;;;25.20;99.90;;;;;;5138926;27;20203;-77
2021/06/08 13:15:31;;;;;;;76.75;72.55;;;25.10;99.90;;;;;;5138057;27;20199;-77
2021/06/08 13:18:09;;;;;;;67.25;63.38;;;25.10;99.90;;;;;;5136089;27;20209;-77
2021/06/08 13:20:40;;;;;;;70.88;67.05;;;25.00;99.90;;;;;;5134371;27;20210;-77
2021/06/08 13:23:17;;;;;;;71.72;67.68;;;25.00;99.90;;;;;;5137212;27;20216;-77
2021/06/08 13:25:53;;;;;;;54.88;51.60;;;25.00;99.90;;;;;;5135053;27;20206;-76
2021/06/08 13:28:31;;;;;;;69.93;66.25;;;25.00;99.90;;;;;;5136659;27;20202;-76
2021/06/08 13:31:08;;;;;;;56.78;53.55;;;25.00;99.90;;;;;;5137291;27;20204;-76
2021/06/08 13:33:37;;;;;;;66.03;62.25;;;25.10;99.90;;;;;;5137640;27;20218;-76
2021/06/08 13:36:06;;;;;;;59.75;56.20;;;25.20;99.90;;;;;;5135127;27;20204;-75
2021/06/08 13:38:32;;;;;;;52.38;49.42;;;25.20;99.90;;;;;;5136921;27;20209;-76
2021/06/08 13:40:59;;;;;;;57.70;54.47;;;25.30;99.90;;;;;;5135555;27;20211;-76
2021/06/08 13:43:25;;;;;;;53.83;50.65;;;25.30;99.90;;;;;;5136199;27;20222;-76
2021/06/08 13:45:54;;;;;;;68.55;64.75;;;25.40;99.90;;;;;;5135936;27;20206;-76
2021/06/08 13:48:28;;;;;;;55.40;52.28;;;25.60;99.90;;;;;;5136659;27;20202;-76
2021/06/08 13:51:11;;;;;;;60.95;57.63;;;25.50;99.90;;;;;;5133083;27;20206;-75
2021/06/08 13:53:38;;;;;;;54.13;50.95;;;25.40;99.90;;;;;;5134618;27;20258;-75
2021/06/08 13:56:09;;;;;;;51.78;48.80;;;25.20;99.90;;;;;;5136932;27;20569;-76
2021/06/08 14:01:23;;;;;;;59.55;56.28;;;25.00;99.90;;;;;;5136070;28;20209;-76
2021/06/08 14:04:05;;;;;;;69.05;65.03;;;24.80;99.90;;;;;;5129922;28;20254;-76
2021/06/08 14:06:33;;;;;;;56.00;52.83;;;24.80;99.90;;;;;;5133300;28;20251;-76
2021/06/08 14:09:03;;;;;;;71.80;68.03;;;24.70;99.90;;;;;;5138650;28;20257;-76
2021/06/08 14:11:40;;;;;;;56.15;53.20;;;24.60;99.90;;;;;;5134305;28;20201;-77
2021/06/08 14:14:08;;;;;;;70.97;67.03;;;24.60;99.90;;;;;;5139452;28;21153;-77
2021/06/08 14:16:34;;;;;;;74.80;70.85;;;24.60;99.90;;;;;;5136691;28;20208;-77